Pagrindinis puslapis
METAR-TAF:

METAR-TAF

Oro uostai :

Moldė, Norvegija

platuma: 62-45N, ilguma: 007-16E, Aukštis: 0 m

Dabartinis oras

Ataskaita buvo paskelbta 15 minutes, ne 02:20 UTC
Vėjas 14 kt iš Šiaurės Vakarų su gūsio iki 25 kt, svyruoja nuo Vakarų ir Šiaurės
Temperatūra -1°C
Drėgmė 64%
Slėgis 1012 hPa
Matomumas: 2000 m
lietus, sniegas

METAR: ENML 200220Z AUTO 32014G25KT 280V010 2000NDV -SHRASN FEW014/// SCT036/// BKN045/// M01/M07 Q1012

Laikas: 03:35 (02:35 UTC)

Prognozė

Ataskaita buvo paskelbta 9 valandos ir 35 minutes, ne 17:00 UTC
Prognozė galioja nuo 19 metu 18 UTC su 19 metu 23 UTC
Vėjas 20 kt iš Vakarų/Šiaurės Vakarų
Matomumas 10 km arba daugiau
Mažai debesys ne aukštis 1200 ft, Liūtiniai kamuoliniai debesys.
Su prošvaistėmis ne aukštis 2500 ft
sniegas
Laikinai
nuo 19 metu 18 UTC su 19 metu 23 UTC
Vėjas 25 kt iš Šiaurės/Šiaurės Vakarų su gūsio iki 38 kt
Matomumas: 0800 m
ne aukštis 900 ft
sniegas

TAF: ENML 191700Z 1918/1923 30020KT 9999 -SHSN FEW012CB BKN025 TEMPO 1918/1923 33025G38KT 0800 SHSN VV009

Orai ataskaitas ir orų prognozės (METAR, TAF).

turimą stotys yra geltonos ir raudonos taškus žemėlapyje.

Perkelti pele per norėdami pamatyti stoties vardą.

Tada spustelėkite, norėdami matyti oro stebėjimo ir prognozės.

Norėdami pakeisti žemėlapį: spustelėkite ant žalios mygtukų su juodo kryžiaus žemyn,; žalią mygtuką su brūkšneliu, jei norite nutolinti; arba žalių rodyklių gretimoms žemėlapius.


METAR-TAF: